METAR Data
IDs: Format: Raw Decoded Include TAF

Data at: 0829 UTC 03 Aug 2021

KL18 030815Z AUTO 00000KT 10SM CLR 17/11 A2998 RMK AO2
KL18 030755Z AUTO 00000KT 10SM CLR 17/11 A2999 RMK AO2
KL18 030735Z AUTO 00000KT 10SM CLR 18/11 A2999 RMK AO2
KL18 030715Z AUTO 00000KT 10SM CLR 19/12 A2999 RMK AO2
KL18 030655Z AUTO 00000KT 10SM CLR 18/12 A3000 RMK AO2
KL18 030635Z AUTO 00000KT 10SM CLR 19/11 A3000 RMK AO2
KL18 030615Z AUTO 00000KT 10SM CLR 19/10 A3000 RMK AO2
KL18 030555Z AUTO 00000KT 10SM CLR 19/11 A3000 RMK AO2
KL18 030535Z AUTO 10SM CLR 19/11 A3000 RMK AO2
KL18 030515Z AUTO 10SM CLR 19/12 A3000 RMK AO2
KL18 030455Z AUTO 10SM CLR 19/12 A3000 RMK AO2
KL18 030435Z AUTO 00000KT 10SM CLR 20/12 A3000 RMK AO2
KL18 030415Z AUTO 00000KT 10SM CLR 20/12 A3000 RMK AO2
KL18 030355Z AUTO 11003KT 10SM CLR 20/12 A2999 RMK AO2
KL18 030335Z AUTO 00000KT 10SM CLR 21/12 A2998 RMK AO2
KL18 030315Z AUTO 00000KT 10SM CLR 21/11 A2998 RMK AO2
KL18 030255Z AUTO 14004KT 10SM CLR 22/12 A2998 RMK AO2
KL18 030235Z AUTO 13003KT 10SM CLR 24/12 A2998 RMK AO2
KL18 030215Z AUTO 14003KT 10SM CLR 26/13 A2998 RMK AO2
KL18 030155Z AUTO 14003KT 10SM CLR 27/13 A2997 RMK AO2
KL18 030135Z AUTO 16003KT 10SM CLR 27/13 A2997 RMK AO2
KL18 030115Z AUTO 15004KT 10SM CLR 28/14 A2997 RMK AO2
KL18 030055Z AUTO 16004KT 10SM CLR 29/14 A2996 RMK AO2
KL18 030035Z AUTO 14005KT 10SM CLR 29/13 A2996 RMK AO2
KL18 030015Z AUTO 16004KT 10SM CLR 29/13 A2996 RMK AO2
KL18 022355Z AUTO 20005KT 10SM CLR 29/13 A2996 RMK AO2
KL18 022335Z AUTO 18003KT 10SM CLR 30/12 A2997 RMK AO2
KL18 022315Z AUTO 20006KT 10SM CLR 31/12 A2997 RMK AO2
KL18 022255Z AUTO 18006KT 10SM CLR 31/12 A2997 RMK AO2
KL18 022235Z AUTO 17006KT 10SM CLR 31/14 A2997 RMK AO2
KL18 022215Z AUTO 16007KT 10SM CLR 32/13 A2998 RMK AO2
KL18 022155Z AUTO 19007KT 170V230 10SM CLR 33/12 A2998 RMK AO2
KL18 022135Z AUTO 17005KT 10SM CLR 34/11 A2998 RMK AO2
KL18 022115Z AUTO 19008KT 10SM CLR 34/11 A2998 RMK AO2
KL18 022055Z AUTO 19007KT 10SM CLR 34/12 A2999 RMK AO2
KL18 022035Z AUTO 21008KT 170V240 10SM CLR 35/12 A3000 RMK AO2
KL18 022015Z AUTO 22008KT 10SM CLR 35/13 A3000 RMK AO2
KL18 021955Z AUTO 21007KT 10SM CLR 35/13 A3001 RMK AO2
KL18 021935Z AUTO 20006KT 10SM CLR 35/13 A3001 RMK AO2
KL18 021915Z AUTO 23004KT 10SM CLR 35/13 A3002 RMK AO2
KL18 021855Z AUTO 24004KT 10SM CLR 34/12 A3002 RMK AO2
KL18 021835Z AUTO 23003KT 10SM CLR 33/12 A3003 RMK AO2
KL18 021815Z AUTO 21003KT 10SM CLR 32/12 A3004 RMK AO2
KL18 021755Z AUTO 20003KT 10SM CLR 32/11 A3004 RMK AO2
KL18 021735Z AUTO 00000KT 10SM CLR 31/11 A3005 RMK AO2
KL18 021715Z AUTO 00000KT 10SM CLR 30/12 A3005 RMK AO2
KL18 021655Z AUTO 00000KT 10SM CLR 28/13 A3006 RMK AO2
KL18 021635Z AUTO 00000KT 10SM CLR 27/13 A3006 RMK AO2
KL18 021615Z AUTO 00000KT 10SM CLR 26/13 A3007 RMK AO2
KL18 021555Z AUTO 00000KT 10SM CLR 25/14 A3007 RMK AO2
KL18 021535Z AUTO 00000KT 10SM CLR 24/14 A3007 RMK AO2
KL18 021515Z AUTO 00000KT 10SM CLR 24/15 A3007 RMK AO2
KL18 021455Z AUTO 00000KT 10SM CLR 22/15 A3007 RMK AO2
KL18 021435Z AUTO 00000KT 10SM CLR 21/15 A3007 RMK AO2
KL18 021415Z AUTO 00000KT 10SM CLR 19/14 A3007 RMK AO2
KL18 021355Z AUTO 00000KT 10SM CLR 17/13 A3006 RMK AO2
KL18 021335Z AUTO 00000KT 10SM CLR 16/12 A3006 RMK AO2
KL18 021315Z AUTO 00000KT 10SM CLR 15/12 A3005 RMK AO2
KL18 021255Z AUTO 00000KT 10SM CLR 15/11 A3005 RMK AO2
KL18 021235Z AUTO 00000KT 10SM CLR 16/11 A3004 RMK AO2
KL18 021215Z AUTO 03003KT 10SM CLR 16/12 A3004 RMK AO2
KL18 021155Z AUTO 01003KT 10SM CLR 16/12 A3004 RMK AO2
KL18 021135Z AUTO 10SM CLR 16/12 A3004 RMK AO2
KL18 021115Z AUTO 00000KT 10SM CLR 16/12 A3004 RMK AO2
KL18 021055Z AUTO 00000KT 10SM CLR 17/13 A3003 RMK AO2
KL18 021035Z AUTO 00000KT 10SM CLR 17/12 A3003 RMK AO2
KL18 021015Z AUTO 00000KT 10SM CLR 18/13 A3003 RMK AO2
KL18 020955Z AUTO 00000KT 10SM CLR 18/13 A3003 RMK AO2
KL18 020935Z AUTO 00000KT 10SM CLR 17/13 A3003 RMK AO2
KL18 020915Z AUTO 00000KT 10SM CLR 17/12 A3003 RMK AO2
KL18 020855Z AUTO 00000KT 10SM CLR 17/12 A3004 RMK AO2
KL18 020835Z AUTO 00000KT 10SM CLR 17/13 A3004 RMK AO2
KL18 020815Z AUTO 00000KT 10SM CLR 17/14 A3004 RMK AO2
KL18 020755Z AUTO 00000KT 10SM CLR 17/11 A3004 RMK AO2
KL18 020735Z AUTO 00000KT 10SM CLR 17/13 A3004 RMK AO2
KL18 020715Z AUTO 00000KT 10SM CLR 17/13 A3004 RMK AO2
KL18 020655Z AUTO 00000KT 10SM CLR 17/12 A3005 RMK AO2
KL18 020635Z AUTO 00000KT 10SM CLR 18/12 A3005 RMK AO2
KL18 020615Z AUTO 00000KT 10SM CLR 18/12 A3005 RMK AO2
KL18 020555Z AUTO 00000KT 10SM CLR 18/13 A3004 RMK AO2
KL18 020535Z AUTO 00000KT 10SM CLR 18/12 A3004 RMK AO2
KL18 020515Z AUTO 00000KT 10SM CLR 18/14 A3005 RMK AO2
KL18 020455Z AUTO 00000KT 10SM CLR 18/11 A3005 RMK AO2
KL18 020435Z AUTO 00000KT 10SM CLR 18/13 A3004 RMK AO2
KL18 020415Z AUTO 00000KT 10SM CLR 19/12 A3004 RMK AO2
KL18 020355Z AUTO 00000KT 10SM CLR 19/12 A3003 RMK AO2
KL18 020335Z AUTO 00000KT 10SM CLR 20/12 A3003 RMK AO2
KL18 020315Z AUTO 12003KT 7SM CLR 20/12 A3002 RMK AO2
KL18 020255Z AUTO 13003KT 10SM CLR 21/12 A3002 RMK AO2
KL18 020235Z AUTO 15005KT 10SM CLR 23/13 A3001 RMK AO2
KL18 020215Z AUTO 13003KT 10SM CLR 25/14 A3001 RMK AO2
KL18 020155Z AUTO 15004KT 10SM CLR 25/14 A3001 RMK AO2
KL18 020135Z AUTO 15005KT 10SM CLR 27/13 A3000 RMK AO2
KL18 020115Z AUTO 16004KT 10SM CLR 28/13 A3000 RMK AO2
KL18 020055Z AUTO 15004KT 10SM CLR 29/14 A3000 RMK AO2
KL18 020035Z AUTO 17006KT 10SM CLR 30/14 A3000 RMK AO2
KL18 020015Z AUTO 16003KT 10SM CLR 30/14 A3000 RMK AO2
KL18 012355Z AUTO 18003KT 10SM CLR 31/14 A3001 RMK AO2
KL18 012335Z AUTO 14006KT 10SM CLR 30/14 A3001 RMK AO2
KL18 012315Z AUTO 15006KT 10SM CLR 31/14 A3001 RMK AO2
KL18 012255Z AUTO 18006KT 10SM CLR 30/14 A3002 RMK AO2
KL18 012235Z AUTO 17006KT 10SM CLR 31/14 A3002 RMK AO2
KL18 012215Z AUTO 20005KT 10SM CLR 31/13 A3002 RMK AO2
KL18 012155Z AUTO 18007KT 10SM CLR 31/14 A3002 RMK AO2
KL18 012135Z AUTO 19005KT 10SM CLR 30/14 A3003 RMK AO2
KL18 012115Z AUTO 22007KT 10SM CLR 32/12 A3003 RMK AO2
KL18 012055Z AUTO 19005KT 10SM CLR 32/12 A3003 RMK AO2
KL18 012035Z AUTO 20006KT 170V230 10SM CLR 31/13 A3003 RMK AO2